Time;durP1;ratioP1;P1;durP2;ratioP2;P2;SDS_P1;SDS_P2;PMS_P1;PMS_P2;Temp;Humidity;BMP_temperature;BMP_pressure;BME280_temperature;BME280_humidity;BME280_pressure;Samples;Min_cycle;Max_cycle;Signal;HPM_P1;HPM_P2
2022/08/06 00:02:21;;;;;;;5.57;1.55;;;;;;;19.83;44.39;102494.16;5057662;28;20143;-65
2022/08/06 00:04:55;;;;;;;3.87;1.50;;;;;;;19.81;44.36;102493.56;5058861;28;20083;-65
2022/08/06 00:07:24;;;;;;;5.07;1.30;;;;;;;19.80;44.43;102489.19;5061609;28;20045;-65
2022/08/06 00:09:56;;;;;;;4.97;1.58;;;;;;;19.80;44.38;102494.63;5055826;28;20114;-64
2022/08/06 00:12:32;;;;;;;5.43;1.50;;;;;;;19.77;44.44;102495.13;5059247;28;20155;-64
2022/08/06 00:15:05;;;;;;;6.15;1.73;;;;;;;19.77;44.35;102497.84;5063536;28;20048;-65
2022/08/06 00:17:40;;;;;;;8.13;1.50;;;;;;;19.75;44.63;102492.63;5059741;28;20056;-65
2022/08/06 00:20:09;;;;;;;7.18;2.33;;;;;;;19.73;44.61;102500.22;5062658;28;20056;-65
2022/08/06 00:22:37;;;;;;;6.15;1.63;;;;;;;19.71;44.55;102496.09;5061051;28;20044;-65
2022/08/06 00:25:09;;;;;;;5.38;1.60;;;;;;;19.71;44.77;102501.56;5062354;28;20049;-65
2022/08/06 00:27:39;;;;;;;7.68;1.75;;;;;;;19.71;44.56;102505.09;5060631;28;20048;-65
2022/08/06 00:30:18;;;;;;;3.88;1.60;;;;;;;19.68;44.79;102499.31;5057669;28;20045;-64
2022/08/06 00:32:48;;;;;;;6.82;2.35;;;;;;;19.66;44.80;102507.72;5053923;28;20056;-64
2022/08/06 00:35:20;;;;;;;9.50;2.35;;;;;;;19.65;44.92;102511.53;5058680;28;20057;-64
2022/08/06 00:37:48;;;;;;;3.25;1.33;;;;;;;19.64;44.54;102509.88;5063868;28;20138;-64
2022/08/06 00:40:27;;;;;;;5.85;1.80;;;;;;;19.63;44.69;102507.38;5058005;28;20403;-65
2022/08/06 00:42:57;;;;;;;7.43;1.65;;;;;;;19.61;44.78;102509.53;5054237;28;20411;-66
2022/08/06 00:45:29;;;;;;;4.28;1.65;;;;;;;19.61;44.92;102512.25;5060589;28;20088;-64
2022/08/06 00:47:58;;;;;;;5.28;1.90;;;;;;;19.59;44.69;102523.41;5061261;28;20532;-64
2022/08/06 00:50:31;;;;;;;6.75;1.80;;;;;;;19.58;44.80;102520.91;5056536;28;20124;-67
2022/08/06 00:53:00;;;;;;;4.00;1.70;;;;;;;19.56;44.78;102525.78;5061387;28;20079;-64
2022/08/06 00:55:29;;;;;;;6.38;1.95;;;;;;;19.53;44.70;102516.19;5059370;28;20390;-64
2022/08/06 00:58:05;;;;;;;5.65;2.25;;;;;;;19.53;45.05;102524.38;5062025;28;20135;-64
2022/08/06 01:00:33;;;;;;;5.22;1.90;;;;;;;19.52;44.84;102525.44;5056447;28;20077;-65
2022/08/06 01:03:07;;;;;;;6.22;1.80;;;;;;;19.52;44.88;102530.06;5053160;28;20061;-64
2022/08/06 01:05:54;;;;;;;3.58;2.03;;;;;;;19.49;45.08;102534.91;5051591;28;20498;-64
2022/08/06 01:08:42;;;;;;;9.02;2.25;;;;;;;19.49;44.83;102539.53;5062975;28;20481;-64
2022/08/06 01:11:12;;;;;;;6.68;1.75;;;;;;;19.47;45.28;102537.03;5061155;28;20053;-65
2022/08/06 01:13:42;;;;;;;4.03;1.83;;;;;;;19.46;45.04;102540.00;5063298;28;20147;-64
2022/08/06 01:16:36;;;;;;;8.18;2.13;;;;;;;19.43;44.88;102543.22;5062227;28;20052;-64
2022/08/06 01:19:28;;;;;;;15.38;3.33;;;;;;;19.42;45.27;102542.38;5056525;28;20056;-64
2022/08/06 01:22:33;;;;;;;4.75;1.67;;;;;;;19.40;45.13;102552.69;5053130;28;20065;-64
2022/08/06 01:25:19;;;;;;;5.20;1.92;;;;;;;19.38;45.24;102552.09;5060351;28;20083;-64
2022/08/06 01:27:55;;;;;;;8.55;3.13;;;;;;;19.36;45.12;102554.25;5061488;28;20148;-64
2022/08/06 01:30:24;;;;;;;;;;;;;;;19.35;45.19;102554.47;5058523;28;20449;-64
2022/08/06 01:33:01;;;;;;;7.93;2.58;;;;;;;19.34;45.44;102552.81;5065072;28;19947;-64
2022/08/06 01:35:40;;;;;;;10.40;2.50;;;;;;;19.32;45.33;102553.06;5064964;28;20053;-64
2022/08/06 01:38:26;;;;;;;7.72;2.05;;;;;;;19.25;45.49;102546.91;5059497;28;20098;-64
2022/08/06 01:40:56;;;;;;;7.72;2.30;;;;;;;19.27;45.29;102554.84;5061017;28;20049;-65
2022/08/06 01:43:27;;;;;;;4.63;2.22;;;;;;;19.28;45.34;102557.34;5066285;28;20075;-65
2022/08/06 01:46:16;;;;;;;7.10;2.00;;;;;;;19.27;45.41;102563.03;5062001;28;20059;-65
2022/08/06 01:48:45;;;;;;;8.65;1.85;;;;;;;19.25;45.34;102565.97;5051781;28;20049;-64
2022/08/06 01:51:13;;;;;;;3.17;1.30;;;;;;;19.25;45.36;102567.88;5063755;28;20398;-64
2022/08/06 01:54:03;;;;;;;5.18;1.90;;;;;;;19.24;45.54;102566.22;5059232;28;20136;-64
2022/08/06 01:56:38;;;;;;;5.63;2.03;;;;;;;19.22;45.40;102566.47;5053800;28;20091;-64
2022/08/06 01:59:30;;;;;;;5.90;1.80;;;;;;;19.22;45.67;102571.09;5064323;28;20088;-64
2022/08/06 02:02:00;;;;;;;3.60;2.10;;;;;;;19.19;45.50;102565.03;5067157;28;20080;-64
2022/08/06 02:04:35;;;;;;;3.70;1.70;;;;;;;19.17;45.55;102566.34;5059383;28;20066;-64
2022/08/06 02:07:08;;;;;;;6.15;1.85;;;;;;;19.14;45.63;102564.91;5064247;28;20048;-64
2022/08/06 02:09:58;;;;;;;6.32;2.17;;;;;;;19.15;45.48;102563.84;5061379;28;20063;-64
2022/08/06 02:12:27;;;;;;;9.07;2.83;;;;;;;19.09;45.59;102566.69;5063166;28;20083;-64
2022/08/06 02:15:01;;;;;;;9.18;2.70;;;;;;;19.13;45.47;102571.44;5061420;28;20045;-65
2022/08/06 02:17:33;;;;;;;3.90;1.80;;;;;;;19.10;45.74;102566.47;5061328;28;20052;-65
2022/08/06 02:20:26;;;;;;;5.25;2.25;;;;;;;19.11;45.70;102570.00;5059604;28;20068;-64
2022/08/06 02:23:07;;;;;;;3.85;2.38;;;;;;;19.08;45.83;102565.88;5059618;28;20045;-64
2022/08/06 02:25:39;;;;;;;5.20;2.10;;;;;;;19.07;45.82;102569.66;5057265;28;20049;-64
2022/08/06 02:28:10;;;;;;;5.63;1.67;;;;;;;19.07;45.60;102571.56;5058759;28;20056;-64
2022/08/06 02:30:56;;;;;;;4.88;1.60;;;;;;;19.01;46.07;102567.91;5056292;28;20053;-64
2022/08/06 02:33:27;;;;;;;5.82;1.80;;;;;;;19.01;45.80;102567.09;5056447;28;20053;-64
2022/08/06 02:36:19;;;;;;;5.50;1.88;;;;;;;18.98;46.01;102564.84;5063668;28;20067;-65
2022/08/06 02:38:56;;;;;;;9.50;2.75;;;;;;;18.98;45.97;102565.66;5054885;28;20069;-64
2022/08/06 02:41:30;;;;;;;3.75;1.73;;;;;;;18.98;45.77;102570.28;5064046;28;20048;-64
2022/08/06 02:44:12;;;;;;;6.18;1.80;;;;;;;18.98;46.03;102573.00;5049491;28;20053;-65
2022/08/06 02:46:47;;;;;;;3.65;1.60;;;;;;;18.97;45.81;102571.34;5064711;28;20052;-64
2022/08/06 02:49:21;;;;;;;4.43;1.90;;;;;;;18.94;46.06;102561.75;5059089;28;20045;-64
2022/08/06 02:51:56;;;;;;;5.03;2.20;;;;;;;18.94;45.96;102571.81;5061545;28;20060;-64
2022/08/06 02:54:49;;;;;;;4.95;2.00;;;;;;;18.94;46.19;102575.38;5057354;28;20051;-64
2022/08/06 02:57:24;;;;;;;3.88;2.05;;;;;;;18.91;46.20;102578.56;5061679;28;20049;-64
2022/08/06 02:59:58;;;;;;;5.20;2.13;;;;;;;18.91;45.87;102578.56;5065624;28;20060;-65
2022/08/06 03:02:30;;;;;;;8.93;1.80;;;;;;;18.89;46.22;102575.25;5058882;28;20091;-64
2022/08/06 03:05:00;;;;;;;5.65;1.92;;;;;;;18.88;46.12;102575.47;5065239;28;20052;-65
2022/08/06 03:07:32;;;;;;;5.38;1.92;;;;;;;18.86;46.11;102570.25;5056114;28;20050;-64
2022/08/06 03:10:02;;;;;;;4.32;1.85;;;;;;;18.83;46.29;102571.56;5060755;28;20060;-64
2022/08/06 03:12:40;;;;;;;6.53;2.03;;;;;;;18.75;46.21;102554.75;5060450;28;20041;-64
2022/08/06 03:15:11;;;;;;;5.88;1.90;;;;;;;18.82;46.29;102572.63;5064328;28;20049;-64
2022/08/06 03:18:02;;;;;;;6.68;2.13;;;;;;;18.81;46.40;102576.41;5061351;28;20057;-65
2022/08/06 03:20:33;;;;;;;5.60;2.25;;;;;;;18.79;46.55;102575.81;5064877;28;20076;-64
2022/08/06 03:23:05;;;;;;;4.13;1.67;;;;;;;18.78;46.28;102581.50;5059460;28;20057;-64
2022/08/06 03:25:33;;;;;;;6.95;1.83;;;;;;;18.76;46.29;102584.47;5060024;28;20072;-65
2022/08/06 03:28:10;;;;;;;4.73;2.00;;;;;;;18.74;46.37;102580.31;5064263;28;20049;-64
2022/08/06 03:30:48;;;;;;;6.00;2.10;;;;;;;18.73;46.23;102587.66;5062511;28;20053;-64
2022/08/06 03:33:24;;;;;;;6.50;1.95;;;;;;;18.72;46.29;102577.00;5064754;28;20492;-64
2022/08/06 03:36:10;;;;;;;8.48;1.90;;;;;;;18.70;46.21;102581.84;5058463;28;20414;-64
2022/08/06 03:38:49;;;;;;;9.23;2.35;;;;;;;18.70;46.48;102592.75;5061262;28;20057;-64
2022/08/06 03:41:24;;;;;;;5.32;1.75;;;;;;;18.67;46.39;102591.31;5064405;28;20165;-64
2022/08/06 03:44:01;;;;;;;5.28;2.28;;;;;;;18.65;46.51;102592.63;5062045;28;20053;-64
2022/08/06 03:46:35;;;;;;;3.55;1.95;;;;;;;18.57;46.62;102582.03;5059992;28;20071;-65
2022/08/06 03:49:09;;;;;;;5.93;2.80;;;;;;;18.63;46.54;102603.75;5059549;28;20077;-65
2022/08/06 03:51:41;;;;;;;4.28;2.00;;;;;;;18.62;46.40;102598.53;5055890;28;20156;-65
2022/08/06 03:54:25;;;;;;;6.05;2.60;;;;;;;18.59;46.74;102607.97;5061634;28;20060;-65
2022/08/06 03:56:59;;;;;;;7.20;2.22;;;;;;;18.59;46.67;102609.84;5063551;28;20041;-65
2022/08/06 03:59:37;;;;;;;3.95;1.92;;;;;;;18.48;46.87;102590.53;5055459;28;20053;-65
2022/08/06 04:02:27;;;;;;;4.35;1.80;;;;;;;18.54;46.59;102605.94;5061039;28;20115;-64
2022/08/06 04:05:17;;;;;;;5.78;1.88;;;;;;;18.54;46.72;102614.09;5050683;28;20639;-65
2022/08/06 04:07:52;;;;;;;6.82;1.83;;;;;;;18.52;46.70;102618.13;5062019;28;20049;-65
2022/08/06 04:10:27;;;;;;;5.28;2.42;;;;;;;18.51;46.64;102614.56;5064290;28;20040;-65
2022/08/06 04:13:03;;;;;;;4.78;1.58;;;;;;;18.50;46.50;102626.50;5058739;28;20046;-64
2022/08/06 04:15:53;;;;;;;5.45;1.83;;;;;;;18.49;46.59;102627.56;5060267;28;20506;-65
2022/08/06 04:18:25;;;;;;;3.53;1.90;;;;;;;18.48;46.60;102623.19;5058483;28;20056;-65
2022/08/06 04:20:58;;;;;;;7.85;2.08;;;;;;;18.45;46.64;102628.28;5063319;28;20486;-65
2022/08/06 04:23:45;;;;;;;6.95;2.15;;;;;;;18.44;46.77;102632.88;5062131;28;20049;-65
2022/08/06 04:26:17;;;;;;;6.50;1.95;;;;;;;18.35;46.93;102622.53;5051969;28;20048;-65
2022/08/06 04:28:48;;;;;;;5.03;2.00;;;;;;;18.42;46.68;102626.84;5060551;28;20049;-65
2022/08/06 04:31:27;;;;;;;7.93;3.75;;;;;;;18.41;46.91;102627.91;5064044;28;20049;-64
2022/08/06 04:34:19;;;;;;;6.82;2.30;;;;;;;18.38;47.13;102625.63;5058179;28;20116;-65
2022/08/06 04:36:49;;;;;;;5.10;1.95;;;;;;;18.38;46.95;102628.38;5061474;28;20049;-65
2022/08/06 04:39:22;;;;;;;5.53;2.05;;;;;;;18.39;46.92;102623.75;5059592;28;20045;-65
2022/08/06 04:42:05;;;;;;;5.70;2.00;;;;;;;18.38;46.77;102632.97;5053118;28;20060;-65
2022/08/06 04:44:34;;;;;;;6.07;2.28;;;;;;;18.37;46.86;102631.31;4707427;28;10000148;-64
2022/08/06 04:47:02;;;;;;;5.90;2.63;;;;;;;18.34;47.01;102627.16;5056195;28;20061;-64
2022/08/06 04:49:30;;;;;;;3.75;2.10;;;;;;;18.34;47.09;102629.06;5058512;28;20079;-64
2022/08/06 04:52:23;;;;;;;5.03;2.08;;;;;;;18.33;47.05;102639.09;5052778;28;20040;-64
2022/08/06 04:55:11;;;;;;;4.20;2.08;;;;;;;18.31;47.19;102638.50;5053039;28;20045;-64
2022/08/06 04:57:58;;;;;;;6.18;2.38;;;;;;;18.31;47.15;102643.13;5062479;28;20067;-64
2022/08/06 05:00:37;;;;;;;5.60;2.00;;;;;;;18.30;47.26;102652.34;5057085;28;20058;-64
2022/08/06 05:03:25;;;;;;;4.65;2.00;;;;;;;18.26;47.29;102643.81;5056561;28;20045;-65
2022/08/06 05:06:19;;;;;;;4.63;2.40;;;;;;;18.29;47.12;102650.69;5058637;28;20049;-64
2022/08/06 05:08:54;;;;;;;5.32;2.35;;;;;;;18.28;47.12;102652.56;5054735;28;20088;-65
2022/08/06 05:11:25;;;;;;;4.63;2.33;;;;;;;18.27;47.35;102652.81;5056530;28;20756;-64
2022/08/06 05:13:57;;;;;;;6.60;2.00;;;;;;;18.25;47.40;102650.31;5063643;28;20077;-64
2022/08/06 05:16:26;;;;;;;4.50;1.95;;;;;;;18.23;47.30;102655.16;5063083;28;20052;-64
2022/08/06 05:18:58;;;;;;;5.53;2.10;;;;;;;18.23;47.54;102659.78;5059770;28;20112;-64
2022/08/06 05:21:48;;;;;;;4.35;1.80;;;;;;;18.21;47.69;102662.72;5054836;28;20041;-64
2022/08/06 05:24:38;;;;;;;4.25;1.70;;;;;;;18.20;47.45;102661.06;5051743;28;20049;-64
2022/08/06 05:27:26;;;;;;;3.47;1.42;;;;;;;18.16;47.76;102668.84;5057396;28;20491;-65
2022/08/06 05:30:14;;;;;;;7.30;3.38;;;;;;;18.18;47.76;102666.72;5059430;28;20049;-65
2022/08/06 05:32:42;;;;;;;5.32;1.98;;;;;;;18.19;47.80;102665.66;5063377;28;20075;-64
2022/08/06 05:35:12;;;;;;;6.07;2.05;;;;;;;18.19;47.71;102673.00;5057052;28;20049;-64
2022/08/06 05:37:45;;;;;;;5.00;1.73;;;;;;;18.19;47.82;102670.28;5059701;28;20079;-65
2022/08/06 05:40:35;;;;;;;3.77;1.93;;;;;;;18.20;47.99;102669.22;5059774;28;20048;-64
2022/08/06 05:43:20;;;;;;;4.93;1.58;;;;;;;18.18;47.81;102672.16;5058694;28;20064;-66
2022/08/06 05:45:52;;;;;;;5.50;2.25;;;;;;;18.20;48.00;102675.50;5051671;28;20045;-64
2022/08/06 05:48:22;;;;;;;4.13;1.80;;;;;;;18.25;48.03;102676.69;5058282;28;20562;-62
2022/08/06 05:51:00;;;;;;;5.57;1.70;;;;;;;18.26;48.05;102684.63;5056306;28;20044;-66
2022/08/06 05:53:38;;;;;;;4.05;1.33;;;;;;;18.26;47.80;102676.47;5054317;28;20068;-65
2022/08/06 05:56:34;;;;;;;7.68;2.22;;;;;;;18.26;47.63;102678.38;5057241;28;20055;-67
2022/08/06 05:59:11;;;;;;;6.03;2.33;;;;;;;18.25;48.05;102679.41;5058893;28;20057;-63
2022/08/06 06:01:59;;;;;;;5.60;2.13;;;;;;;18.24;48.33;102677.75;5056203;28;20048;-62
2022/08/06 06:04:29;;;;;;;6.72;2.20;;;;;;;18.25;48.32;102682.16;5059559;28;20053;-63
2022/08/06 06:07:01;;;;;;;7.97;1.80;;;;;;;18.24;48.69;102681.31;5060491;28;20182;-63
2022/08/06 06:09:36;;;;;;;6.43;2.38;;;;;;;18.23;48.69;102682.38;5059882;28;20140;-62
2022/08/06 06:12:26;;;;;;;5.32;1.88;;;;;;;18.20;48.71;102685.56;5044324;28;20573;-62
2022/08/06 06:15:01;;;;;;;3.83;1.85;;;;;;;18.19;48.76;102683.88;5068117;28;20063;-62
2022/08/06 06:17:54;;;;;;;7.28;2.90;;;;;;;18.18;48.68;102693.09;5060797;28;20040;-62
2022/08/06 06:20:37;;;;;;;5.90;2.33;;;;;;;18.17;49.28;102688.72;5063998;28;20284;-63
2022/08/06 06:23:32;;;;;;;6.30;1.80;;;;;;;18.17;49.02;102696.88;5064313;28;20051;-61
2022/08/06 06:26:07;;;;;;;5.13;1.80;;;;;;;18.14;49.12;102681.03;5054758;28;20073;-63
2022/08/06 06:29:12;;;;;;;4.68;2.25;;;;;;;18.13;49.91;102695.69;5061309;28;20053;-63
2022/08/06 06:31:53;;;;;;;4.65;2.00;;;;;;;18.10;50.23;102691.53;5062002;28;20056;-66
2022/08/06 06:34:46;;;;;;;9.02;1.80;;;;;;;18.03;50.04;102679.88;5060221;28;20053;-70
2022/08/06 06:37:22;;;;;;;7.57;1.92;;;;;;;18.08;50.19;102696.38;5071900;28;20049;-67
2022/08/06 06:40:03;;;;;;;6.03;2.17;;;;;;;18.11;50.13;102697.78;5062088;28;20061;-67
2022/08/06 06:42:49;;;;;;;5.03;1.60;;;;;;;18.11;50.29;102692.34;5053037;28;20055;-67
2022/08/06 06:45:25;;;;;;;3.33;1.60;;;;;;;18.10;50.11;102694.25;5057294;28;20076;-66
2022/08/06 06:48:17;;;;;;;4.28;1.50;;;;;;;18.08;50.29;102696.38;5064267;28;20206;-66
2022/08/06 06:50:50;;;;;;;3.08;1.60;;;;;;;18.09;50.22;102695.31;5071974;28;20076;-66
2022/08/06 06:53:19;;;;;;;6.50;1.80;;;;;;;18.11;49.90;102700.53;5065213;28;20056;-66
2022/08/06 06:55:55;;;;;;;5.05;1.48;;;;;;;18.09;49.93;102699.91;5076182;28;20056;-66
2022/08/06 06:58:34;;;;;;;7.97;2.00;;;;;;;18.12;49.92;102704.91;5061408;28;20099;-66
2022/08/06 07:01:05;;;;;;;4.45;1.70;;;;;;;18.11;49.85;102705.97;5066729;28;20123;-66
2022/08/06 07:03:54;;;;;;;4.43;1.50;;;;;;;18.12;49.73;102718.50;5062037;28;20048;-66
2022/08/06 07:06:23;;;;;;;7.45;1.73;;;;;;;18.12;50.02;102713.91;5057539;28;20083;-66
2022/08/06 07:09:14;;;;;;;3.58;1.55;;;;;;;18.14;49.87;102710.94;5059728;28;20080;-66
2022/08/06 07:12:03;;;;;;;3.63;1.58;;;;;;;18.15;49.82;102723.50;5068263;28;20052;-67
2022/08/06 07:14:42;;;;;;;2.78;1.55;;;;;;;18.14;49.96;102717.22;5066813;28;20048;-67
2022/08/06 07:17:12;;;;;;;5.60;1.50;;;;;;;18.12;49.92;102722.06;5068691;28;20048;-67
2022/08/06 07:20:03;;;;;;;3.78;1.30;;;;;;;18.12;50.02;102727.50;5059745;28;20082;-67
2022/08/06 07:22:34;;;;;;;3.17;1.25;;;;;;;18.13;49.83;102725.63;5059632;28;20116;-67
2022/08/06 07:25:24;;;;;;;3.88;1.85;;;;;;;18.13;49.96;102731.88;5060010;28;20053;-67
2022/08/06 07:27:52;;;;;;;3.30;1.20;;;;;;;18.15;50.14;102724.34;5072003;28;20048;-68
2022/08/06 07:30:23;;;;;;;4.88;1.63;;;;;;;18.16;49.80;102728.72;5069481;28;20075;-67
2022/08/06 07:32:54;;;;;;;3.25;1.50;;;;;;;18.18;49.99;102728.50;5059326;28;20129;-69
2022/08/06 07:35:21;;;;;;;3.22;1.40;;;;;;;18.18;49.88;102733.94;5062410;28;20079;-67
2022/08/06 07:37:56;;;;;;;6.22;1.70;;;;;;;18.14;49.95;102724.56;5057969;28;20110;-67
2022/08/06 07:40:27;;;;;;;4.07;1.30;;;;;;;18.20;49.69;102740.81;5060644;28;20128;-67
2022/08/06 07:43:03;;;;;;;2.65;1.00;;;;;;;18.21;49.78;102731.59;5068638;28;20060;-67
2022/08/06 07:45:50;;;;;;;3.58;1.42;;;;;;;18.23;49.62;102738.69;5049858;28;20056;-67
2022/08/06 07:48:28;;;;;;;3.92;1.35;;;;;;;18.25;49.54;102742.84;5066255;28;20066;-67
2022/08/06 07:51:01;;;;;;;3.60;1.50;;;;;;;18.26;49.64;102740.97;5058614;28;20057;-67
2022/08/06 07:53:32;;;;;;;2.75;1.02;;;;;;;18.25;49.54;102737.41;5058890;28;20049;-68
2022/08/06 07:56:21;;;;;;;2.53;1.02;;;;;;;18.26;49.75;102741.78;5055096;28;20052;-64
2022/08/06 07:58:53;;;;;;;2.25;1.00;;;;;;;18.19;49.79;102733.72;5053193;28;20057;-69
2022/08/06 08:01:25;;;;;;;7.72;1.95;;;;;;;18.25;49.77;102742.03;5052589;28;20053;-67
2022/08/06 08:07:05;;;;;;;4.07;0.90;;;;;;;18.28;49.64;102747.00;5057854;28;20083;-65
2022/08/06 08:09:40;;;;;;;3.00;1.08;;;;;;;18.27;49.66;102739.91;5060746;28;20045;-66
2022/08/06 08:12:28;;;;;;;3.03;0.82;;;;;;;18.30;49.96;102739.44;5059376;28;20067;-66
2022/08/06 08:15:03;;;;;;;3.17;1.10;;;;;;;18.32;49.91;102740.88;5055916;28;20454;-67
2022/08/06 08:17:33;;;;;;;3.47;1.75;;;;;;;18.35;49.77;102753.22;5061227;28;20048;-67
2022/08/06 08:20:06;;;;;;;6.50;1.40;;;;;;;18.34;49.80;102746.09;5062036;28;20057;-68
2022/08/06 08:22:43;;;;;;;3.90;1.30;;;;;;;18.36;49.81;102742.09;5063324;28;20590;-68
2022/08/06 08:25:17;;;;;;;2.47;0.80;;;;;;;18.37;49.65;102749.22;5067510;28;20076;-67
2022/08/06 08:28:05;;;;;;;2.80;0.85;;;;;;;18.37;49.72;102746.47;5059363;28;20056;-69
2022/08/06 08:30:40;;;;;;;2.97;1.08;;;;;;;18.38;49.68;102744.59;5056569;28;20354;-67
2022/08/06 08:33:09;;;;;;;4.20;1.05;;;;;;;18.41;49.86;102747.69;5057282;28;20072;-67
2022/08/06 08:35:46;;;;;;;1.85;0.95;;;;;;;18.43;49.73;102750.19;5059841;28;20130;-67
2022/08/06 08:38:21;;;;;;;1.92;1.10;;;;;;;18.43;49.46;102751.00;5068058;28;20053;-67
2022/08/06 08:40:55;;;;;;;4.18;1.27;;;;;;;18.45;49.31;102742.63;5064040;28;20044;-67
2022/08/06 08:43:30;;;;;;;3.58;1.67;;;;;;;18.46;49.15;102752.44;5065677;28;20560;-67
2022/08/06 08:46:18;;;;;;;2.15;0.93;;;;;;;18.46;48.64;102750.56;5059102;28;20065;-67
2022/08/06 08:49:01;;;;;;;3.13;0.90;;;;;;;18.47;48.74;102751.41;5054618;28;20071;-67
2022/08/06 08:51:34;;;;;;;3.53;0.90;;;;;;;18.47;48.50;102754.13;5055323;28;20070;-67
2022/08/06 08:54:11;;;;;;;4.68;1.05;;;;;;;18.49;48.17;102746.56;5055846;28;20048;-67
2022/08/06 08:56:45;;;;;;;1.52;0.77;;;;;;;18.49;48.14;102746.56;5062658;28;20152;-67
2022/08/06 08:59:33;;;;;;;3.95;1.45;;;;;;;18.49;47.92;102758.28;5052521;28;20053;-67
2022/08/06 09:02:23;;;;;;;2.72;0.98;;;;;;;18.52;47.96;102757.00;5044987;28;20057;-67
2022/08/06 09:04:52;;;;;;;2.03;0.93;;;;;;;18.52;47.80;102751.53;5057706;28;20193;-66
2022/08/06 09:07:21;;;;;;;3.83;1.50;;;;;;;18.56;47.96;102749.19;5059330;28;20612;-67
2022/08/06 09:10:04;;;;;;;2.05;0.90;;;;;;;18.60;48.13;102745.78;5060219;28;20063;-66
2022/08/06 09:12:33;;;;;;;6.00;1.20;;;;;;;18.65;48.67;102759.56;5072858;28;20052;-66
2022/08/06 09:15:15;;;;;;;2.45;1.00;;;;;;;18.68;48.41;102756.41;5065656;28;20124;-67
2022/08/06 09:17:46;;;;;;;3.83;1.00;;;;;;;18.71;48.49;102761.38;5061176;28;20059;-67
2022/08/06 09:20:35;;;;;;;9.63;1.10;;;;;;;18.75;48.45;102761.75;5057403;28;20053;-67
2022/08/06 09:23:04;;;;;;;3.33;0.68;;;;;;;18.77;48.35;102759.63;5060431;28;20060;-66
2022/08/06 09:25:44;;;;;;;3.05;0.90;;;;;;;18.78;48.50;102762.13;5054759;28;20483;-67
2022/08/06 09:28:34;;;;;;;2.25;0.80;;;;;;;18.83;48.46;102769.63;5059782;28;20151;-66
2022/08/06 09:31:05;;;;;;;6.68;1.38;;;;;;;18.84;48.36;102761.22;5059140;28;20048;-66
2022/08/06 09:34:00;;;;;;;1.30;0.98;;;;;;;18.85;48.83;102762.88;5059818;28;20449;-66
2022/08/06 09:36:49;;;;;;;2.72;0.90;;;;;;;18.89;48.03;102765.97;5058848;28;20048;-65
2022/08/06 09:39:34;;;;;;;2.05;0.80;;;;;;;18.91;47.65;102752.13;5052379;28;20048;-65
2022/08/06 09:42:37;;;;;;;1.42;1.05;;;;;;;18.92;47.52;102756.50;5062549;28;20056;-66
2022/08/06 09:45:09;;;;;;;2.03;1.10;;;;;;;18.94;47.59;102762.56;5050492;28;20132;-66
2022/08/06 09:47:44;;;;;;;3.60;1.00;;;;;;;18.96;47.20;102766.72;5056972;28;20076;-67
2022/08/06 09:50:37;;;;;;;3.58;1.15;;;;;;;18.98;47.47;102761.03;5054731;28;20103;-67
2022/08/06 09:53:05;;;;;;;2.55;0.90;;;;;;;19.00;47.08;102758.91;5061591;28;20055;-65
2022/08/06 09:55:43;;;;;;;3.92;1.13;;;;;;;19.02;47.89;102763.06;5063316;28;20041;-66
2022/08/06 09:58:11;;;;;;;1.75;0.65;;;;;;;19.07;47.90;102762.31;5055360;28;20061;-66
2022/08/06 10:00:40;;;;;;;1.15;0.63;;;;;;;19.12;48.53;102766.03;5067141;28;20744;-64
2022/08/06 10:03:13;;;;;;;1.17;0.77;;;;;;;19.15;48.25;102757.38;5067006;28;20079;-66
2022/08/06 10:06:05;;;;;;;3.60;1.13;;;;;;;19.21;48.34;102755.63;5062922;28;20156;-66
2022/08/06 10:08:37;;;;;;;;;;;;;;;19.23;47.60;102753.50;5048780;28;20057;-65
2022/08/06 10:11:07;;;;;;;2.38;0.82;;;;;;;19.24;47.65;102757.88;5056141;28;19921;-65
2022/08/06 10:13:37;;;;;;;1.98;0.82;;;;;;;19.29;47.05;102759.91;5062468;28;20084;-65
2022/08/06 10:16:19;;;;;;;1.85;0.75;;;;;;;19.30;47.12;102762.41;5060421;28;20072;-65
2022/08/06 10:18:49;;;;;;;4.50;0.90;;;;;;;19.33;46.78;102753.75;5070408;28;20057;-68
2022/08/06 10:21:28;;;;;;;2.88;0.85;;;;;;;19.35;47.15;102748.91;5060960;28;20060;-67
2022/08/06 10:24:11;;;;;;;1.95;0.80;;;;;;;19.41;47.51;102749.84;5060037;28;20049;-68
2022/08/06 10:26:42;;;;;;;3.88;0.82;;;;;;;19.42;46.42;102746.91;5069135;28;20060;-69
2022/08/06 10:29:13;;;;;;;1.88;1.02;;;;;;;19.44;46.01;102743.94;5062658;28;20052;-69
2022/08/06 10:31:41;;;;;;;3.03;0.93;;;;;;;19.46;46.01;102747.25;5066422;28;20132;-65
2022/08/06 10:34:11;;;;;;;2.40;1.10;;;;;;;19.47;45.98;102743.47;5063925;28;20053;-67
2022/08/06 10:36:49;;;;;;;2.03;0.98;;;;;;;19.50;45.96;102743.00;5066721;28;20449;-69
2022/08/06 10:39:19;;;;;;;3.90;1.00;;;;;;;19.54;46.10;102737.94;5063424;28;20125;-66
2022/08/06 10:42:09;;;;;;;4.05;0.77;;;;;;;19.59;46.71;102741.59;5060051;28;20061;-66
2022/08/06 10:44:50;;;;;;;2.63;0.90;;;;;;;19.67;46.81;102733.06;5059026;28;20073;-66
2022/08/06 10:47:22;;;;;;;1.50;0.77;;;;;;;19.71;46.13;102733.44;5054379;28;20056;-66
2022/08/06 10:50:12;;;;;;;4.30;0.90;;;;;;;19.73;45.86;102732.13;5059305;28;20063;-66
2022/08/06 10:53:02;;;;;;;2.58;0.82;;;;;;;19.78;45.99;102731.41;5061373;28;20053;-67
2022/08/06 10:55:31;;;;;;;1.77;0.95;;;;;;;19.82;45.78;102736.16;5060054;28;20109;-67
2022/08/06 10:58:11;;;;;;;1.33;0.68;;;;;;;19.85;45.88;102726.66;5062279;28;20057;-67
2022/08/06 11:00:41;;;;;;;1.13;0.60;;;;;;;19.91;45.79;102723.00;5057751;28;20060;-65
2022/08/06 11:03:25;;;;;;;2.65;0.85;;;;;;;19.95;44.57;102731.53;5056471;28;20431;-66
2022/08/06 11:06:01;;;;;;;4.63;1.10;;;;;;;19.97;45.01;102732.94;5068604;28;20136;-66
2022/08/06 11:08:49;;;;;;;2.92;0.90;;;;;;;20.08;47.51;102731.28;5058742;28;20096;-65
2022/08/06 11:11:37;;;;;;;1.60;0.77;;;;;;;20.12;45.98;102733.28;5057482;28;20045;-66
2022/08/06 11:14:10;;;;;;;2.13;0.85;;;;;;;20.16;45.32;102728.19;5069572;28;20135;-66
2022/08/06 11:16:56;;;;;;;4.38;1.42;;;;;;;20.21;44.95;102719.28;5059434;28;20053;-66
2022/08/06 11:19:42;;;;;;;2.03;0.85;;;;;;;20.23;44.69;102717.13;5056063;28;20049;-66
2022/08/06 11:22:36;;;;;;;2.83;1.08;;;;;;;20.29;45.21;102716.16;5056048;28;20059;-66
2022/08/06 11:25:08;;;;;;;0.70;0.55;;;;;;;20.37;46.45;102719.34;5060646;28;20048;-67
2022/08/06 11:27:56;;;;;;;7.78;1.83;;;;;;;20.45;46.59;102709.97;5060861;28;20059;-67
2022/08/06 11:30:42;;;;;;;2.63;1.00;;;;;;;20.47;44.81;102724.22;5062665;28;20058;-67
2022/08/06 11:33:16;;;;;;;8.70;1.80;;;;;;;20.48;44.28;102719.59;5059231;28;20057;-67
2022/08/06 11:35:48;;;;;;;1.45;0.70;;;;;;;20.40;43.11;102710.69;5057209;28;20072;-67
2022/08/06 11:38:58;;;;;;;2.90;1.00;;;;;;;20.46;44.16;102717.94;5059489;28;20071;-67
2022/08/06 11:41:51;;;;;;;1.27;0.70;;;;;;;20.52;44.59;102709.84;5061326;28;20054;-68
2022/08/06 11:44:26;;;;;;;2.08;0.88;;;;;;;20.58;44.24;102703.41;5059182;28;20518;-67
2022/08/06 11:47:19;;;;;;;1.77;0.70;;;;;;;20.64;44.22;102711.44;5059050;28;20048;-66
2022/08/06 11:50:00;;;;;;;1.08;0.70;;;;;;;20.68;43.89;102711.78;5060662;28;20164;-68
2022/08/06 11:52:42;;;;;;;4.30;1.63;;;;;;;20.75;44.09;102704.28;5058274;28;20111;-67
2022/08/06 11:55:13;;;;;;;3.38;1.20;;;;;;;20.79;44.22;102703.53;5063182;28;20048;-68
2022/08/06 11:57:50;;;;;;;2.80;0.93;;;;;;;20.85;43.51;102706.34;5060063;28;20549;-66
2022/08/06 12:00:21;;;;;;;2.10;0.80;;;;;;;20.88;43.55;102706.69;5059584;28;20565;-71
2022/08/06 12:02:58;;;;;;;3.80;1.13;;;;;;;20.86;43.81;102689.69;5063284;28;20048;-69
2022/08/06 12:05:37;;;;;;;7.38;2.22;;;;;;;21.00;44.72;102698.41;5061347;28;20156;-68
2022/08/06 12:08:20;;;;;;;2.03;1.05;;;;;;;21.05;43.56;102701.22;5061162;28;20056;-70
2022/08/06 12:11:28;;;;;;;;;;;;;;;21.05;42.10;102699.34;5062050;28;20049;-70
2022/08/06 12:13:56;;;;;;;3.63;0.95;;;;;;;21.04;42.52;102688.63;5068093;28;19954;-69
2022/08/06 12:16:44;;;;;;;2.78;0.90;;;;;;;21.05;40.74;102691.13;5066186;28;20040;-72
2022/08/06 12:19:22;;;;;;;3.22;0.75;;;;;;;21.08;41.67;102687.06;5063473;28;20135;-68
2022/08/06 12:21:53;;;;;;;2.10;0.80;;;;;;;21.08;40.57;102698.00;5069239;28;20049;-63